F/V Harvestor — WDC8229 — position and weather

sailwx.info

Track history (hours):
 
Tides and Currents Weather Stations Pressure Air Temp Water Temp Dewpoint Dewpoint Depression Visibility Wind Speed Wind Dir Waves Ship Positions

F/V Harvestor

Owner: F/V HARVESTOR INC., EDMONDS, WA. More information available from US FCC via Universal Licensing System and Coast Guard Vessel Documentation Center.

Last reported at 2015-Mar-30 19:34 UTC. Time now 2015-Mar-30 20:03 UTC.
Position N 47°38' W 122°23'.

Length 40 m.

Type: Fishing. MMSI: 367083650.

Date/timePositionNaut miles runAvg speedWind from/ knotsBaromVisibWave heightAir tempDewpointWater temp
2015-Mar-30 19:34N 47°38' W 122°23'0 0.0
2015-Mar-30 19:33N 47°38' W 122°23'0 0.0
2015-Mar-30 18:34N 47°38' W 122°23'0 0.0
2015-Mar-30 18:33N 47°38' W 122°23'0 0.0
2015-Mar-30 17:34N 47°38' W 122°23'0 0.1
2015-Mar-30 17:26N 47°38' W 122°23'0 0.0
2015-Mar-30 16:34N 47°38' W 122°23'0 0.0
2015-Mar-30 16:31N 47°38' W 122°23'0 0.0
2015-Mar-30 15:34N 47°38' W 122°23'0 0.0
2015-Mar-30 15:31N 47°38' W 122°23'0 0.0
2015-Mar-30 14:34N 47°38' W 122°23'0 0.1
2015-Mar-30 14:31N 47°38' W 122°23'0 0.0
2015-Mar-30 13:34N 47°38' W 122°23'0 0.0
2015-Mar-30 13:31N 47°38' W 122°23'0 0.0
2015-Mar-30 12:34N 47°38' W 122°23'0 0.1
2015-Mar-30 12:31N 47°38' W 122°23'0 0.0
2015-Mar-30 11:34N 47°38' W 122°23'0 0.1
2015-Mar-30 11:31N 47°38' W 122°23'0 0.0
2015-Mar-30 10:34N 47°38' W 122°23'0 0.0
2015-Mar-30 10:31N 47°38' W 122°23'0 0.0
2015-Mar-30 09:34N 47°38' W 122°23'0 0.0
2015-Mar-30 09:31N 47°38' W 122°23'0 0.0
2015-Mar-30 08:34N 47°38' W 122°23'0 0.0
2015-Mar-30 08:31N 47°38' W 122°23'0 0.0
2015-Mar-30 07:34N 47°38' W 122°23'0 0.0
2015-Mar-30 07:31N 47°38' W 122°23'0 0.0
2015-Mar-30 05:22N 47°38' W 122°23'0 0.0
2015-Mar-30 05:21N 47°38' W 122°23'0 0.0
2015-Mar-30 04:32N 47°38' W 122°23'0 0.0
2015-Mar-30 03:55N 47°38' W 122°23'0 0.0
2015-Mar-30 03:34N 47°38' W 122°23'0 0.0
2015-Mar-30 03:30N 47°38' W 122°23'0 0.0
2015-Mar-30 02:34N 47°38' W 122°23'0 0.0
2015-Mar-30 02:30N 47°38' W 122°23'0 0.0
2015-Mar-30 01:34N 47°38' W 122°23'0 0.0
2015-Mar-30 01:30N 47°38' W 122°23'0 0.0
2015-Mar-30 00:33N 47°38' W 122°23'0 0.0
2015-Mar-30 00:30N 47°38' W 122°23'0 0.0
2015-Mar-29 23:33N 47°38' W 122°23'0 0.0
2015-Mar-29 23:30N 47°38' W 122°23'6 6.9
2015-Mar-29 22:34N 47°34' W 122°31'0 6.4
2015-Mar-29 22:30N 47°34' W 122°32'1 0.7
2015-Mar-29 21:34N 47°34' W 122°33'0 0.0
2015-Mar-29 21:30N 47°34' W 122°33'0 0.0
2015-Mar-29 20:34N 47°34' W 122°33'0 0.0
2015-Mar-29 20:30N 47°34' W 122°33'0 0.0
2015-Mar-29 19:34N 47°34' W 122°33'0 0.1
2015-Mar-29 19:30N 47°34' W 122°33'0 0.0
2015-Mar-29 18:34N 47°34' W 122°33'0 0.0
2015-Mar-29 18:29N 47°34' W 122°33'0 0.0
2015-Mar-29 17:34N 47°34' W 122°33'0 0.1
2015-Mar-29 17:29N 47°34' W 122°33'0 0.0
2015-Mar-29 16:33N 47°34' W 122°33'0 0.5
2015-Mar-29 16:29N 47°34' W 122°33'0 0.0
2015-Mar-29 15:33N 47°34' W 122°33'0 0.0
2015-Mar-29 15:29N 47°34' W 122°33'4 4.0
2015-Mar-29 14:34N 47°36' W 122°27'1 7.9
2015-Mar-29 14:28N 47°36' W 122°27'3 3.4
2015-Mar-29 13:34N 47°38' W 122°23'0 0.1
2015-Mar-29 13:29N 47°38' W 122°23'0 0.0
2015-Mar-29 12:34N 47°38' W 122°23'0 0.5
2015-Mar-29 12:33N 47°38' W 122°23'0 0.0
2015-Mar-29 11:34N 47°38' W 122°23'0 0.0
2015-Mar-29 11:33N 47°38' W 122°23'0 0.0
2015-Mar-29 10:34N 47°38' W 122°23'0 0.0
2015-Mar-29 10:22N 47°38' W 122°23'0 0.0
2015-Mar-29 09:34N 47°38' W 122°23'0 0.0
2015-Mar-29 09:33N 47°38' W 122°23'0 0.0
2015-Mar-29 08:34N 47°38' W 122°23'0 0.3
2015-Mar-29 08:32N 47°38' W 122°23'0 0.0
2015-Mar-29 07:34N 47°38' W 122°23'0 0.0
2015-Mar-29 07:32N 47°38' W 122°23'0 0.0
2015-Mar-29 06:34N 47°38' W 122°23'0 0.0
2015-Mar-29 06:32N 47°38' W 122°23'0 0.0
2015-Mar-29 06:02N 47°38' W 122°23'0 0.0
2015-Mar-29 05:34N 47°38' W 122°23'0 0.0
2015-Mar-29 04:33N 47°38' W 122°23'0 0.2
2015-Mar-29 04:32N 47°38' W 122°23'0 0.0
2015-Mar-29 03:33N 47°38' W 122°23'0 0.3
2015-Mar-29 03:32N 47°38' W 122°23'0 0.0
2015-Mar-29 02:34N 47°38' W 122°23'0 0.2
2015-Mar-29 02:32N 47°38' W 122°23'0 0.0
2015-Mar-29 01:34N 47°38' W 122°23'0 0.0
2015-Mar-29 01:32N 47°38' W 122°23'0 0.0
2015-Mar-29 00:34N 47°38' W 122°23'0 0.2
2015-Mar-29 00:32N 47°38' W 122°23'0 0.0
2015-Mar-28 23:34N 47°38' W 122°23'0 0.0
2015-Mar-28 23:27N 47°38' W 122°23'0 0.0
2015-Mar-28 22:34N 47°38' W 122°23'0 0.2
2015-Mar-28 22:32N 47°38' W 122°23'0 0.0
2015-Mar-28 21:34N 47°38' W 122°23'0 0.2
2015-Mar-28 21:32N 47°38' W 122°23'0 0.0
2015-Mar-28 20:33N 47°38' W 122°23'0 0.0
2015-Mar-28 20:32N 47°38' W 122°23'0 0.0
2015-Mar-28 19:34N 47°38' W 122°23'0 0.1
2015-Mar-28 19:27N 47°38' W 122°23'0 0.0
2015-Mar-28 18:34N 47°38' W 122°23'0 0.0
2015-Mar-28 18:10N 47°38' W 122°23'0 0.0
2015-Mar-28 17:33N 47°38' W 122°23'0 0.0
2015-Mar-28 17:30N 47°38' W 122°23'0 0.0
2015-Mar-28 16:33N 47°38' W 122°23'0 0.0
2015-Mar-28 16:08N 47°38' W 122°23'0 0.0
2015-Mar-28 15:33N 47°38' W 122°23'0 0.0
2015-Mar-28 15:33N 47°38' W 122°23'0 0.0
2015-Mar-28 14:34N 47°38' W 122°23'0 0.0
2015-Mar-28 14:22N 47°38' W 122°23'0 0.0
2015-Mar-28 13:34N 47°38' W 122°23'0 0.0
2015-Mar-28 13:20N 47°38' W 122°23'0 0.0
2015-Mar-28 12:34N 47°38' W 122°23'0 0.0
2015-Mar-28 12:30N 47°38' W 122°23'0 0.0
2015-Mar-28 11:34N 47°38' W 122°23'0 0.0
2015-Mar-28 11:30N 47°38' W 122°23'0 0.0
2015-Mar-28 10:33N 47°38' W 122°23'0 0.1
2015-Mar-28 10:30N 47°38' W 122°23'0 0.0
2015-Mar-28 09:34N 47°38' W 122°23'0 0.0
2015-Mar-28 09:30N 47°38' W 122°23'0 0.0
2015-Mar-28 08:33N 47°38' W 122°23'0 0.0
2015-Mar-28 08:29N 47°38' W 122°23'0 0.0
2015-Mar-28 07:34N 47°38' W 122°23'0 0.0
2015-Mar-28 07:29N 47°38' W 122°23'0 0.0
2015-Mar-28 06:44N 47°38' W 122°23'0 0.0
2015-Mar-28 06:34N 47°38' W 122°23'0 0.0
2015-Mar-28 05:34N 47°38' W 122°23'0 0.0
2015-Mar-28 05:29N 47°38' W 122°23'0 0.0
2015-Mar-28 04:33N 47°38' W 122°23'0 0.0
2015-Mar-28 04:32N 47°38' W 122°23'0 0.0
2015-Mar-28 03:33N 47°38' W 122°23'0 0.5
2015-Mar-28 03:32N 47°38' W 122°23'0 0.0
2015-Mar-28 02:33N 47°38' W 122°23'0 0.0
2015-Mar-28 02:32N 47°38' W 122°23'0 0.0
2015-Mar-28 01:33N 47°38' W 122°23'0 0.3
2015-Mar-28 01:32N 47°38' W 122°23'0 0.0
2015-Mar-28 00:34N 47°38' W 122°23'0 0.0
2015-Mar-28 00:32N 47°38' W 122°23'0 0.0
2015-Mar-27 23:33N 47°38' W 122°23'0 0.0
2015-Mar-27 23:32N 47°38' W 122°23'0 0.0
2015-Mar-27 22:34N 47°38' W 122°23'0 0.2
2015-Mar-27 22:32N 47°38' W 122°23'0 0.0
2015-Mar-27 21:34N 47°38' W 122°23'0 0.0
2015-Mar-27 21:32N 47°38' W 122°23'0 0.0
2015-Mar-27 20:33N 47°38' W 122°23'0 0.0
2015-Mar-27 20:32N 47°38' W 122°23'0 0.0
2015-Mar-27 19:33N 47°38' W 122°23'0 0.0
2015-Mar-27 18:38N 47°38' W 122°23'0 0.0
2015-Mar-27 18:33N 47°38' W 122°23'0 0.1
2015-Mar-27 18:28N 47°38' W 122°23'0 0.0
2015-Mar-27 17:34N 47°38' W 122°23'0 0.0
2015-Mar-27 17:16N 47°38' W 122°23'0 0.0
2015-Mar-27 16:34N 47°38' W 122°23'0 0.1
2015-Mar-27 16:30N 47°38' W 122°23'0 0.0
2015-Mar-27 15:34N 47°38' W 122°23'0 0.0
2015-Mar-27 15:30N 47°38' W 122°23'0 0.0
2015-Mar-27 14:33N 47°38' W 122°23'0 0.1
2015-Mar-27 14:30N 47°38' W 122°23'0 0.0
2015-Mar-27 13:34N 47°38' W 122°23'0 0.0
2015-Mar-27 13:30N 47°38' W 122°23'0 0.0
2015-Mar-27 12:33N 47°38' W 122°23'0 0.0
2015-Mar-27 12:30N 47°38' W 122°23'0 0.0
2015-Mar-27 11:34N 47°38' W 122°23'0 0.1
2015-Mar-27 11:29N 47°38' W 122°23'0 0.0
2015-Mar-27 10:33N 47°38' W 122°23'0 0.0
2015-Mar-27 10:30N 47°38' W 122°23'0 0.0
2015-Mar-27 09:34N 47°38' W 122°23'0 0.0
2015-Mar-27 09:30N 47°38' W 122°23'0 0.0
2015-Mar-27 08:33N 47°38' W 122°23'0 0.0
2015-Mar-27 08:29N 47°38' W 122°23'0 0.0
2015-Mar-27 07:33N 47°38' W 122°23'0 0.0
2015-Mar-27 07:30N 47°38' W 122°23'0 0.0
2015-Mar-27 06:30N 47°38' W 122°23'0 0.0
2015-Mar-27 05:30N 47°38' W 122°23'0 0.1
2015-Mar-27 05:26N 47°38' W 122°23'0 0.0
2015-Mar-27 04:33N 47°38' W 122°23'0 0.0
2015-Mar-27 04:30N 47°38' W 122°23'0 0.0
2015-Mar-27 03:33N 47°38' W 122°23'0 0.0
2015-Mar-27 03:30N 47°38' W 122°23'0 0.0
2015-Mar-27 02:33N 47°38' W 122°23'0 0.0
2015-Mar-27 02:30N 47°38' W 122°23'0 0.0
2015-Mar-27 01:33N 47°38' W 122°23'0 0.0
2015-Mar-27 01:30N 47°38' W 122°23'0 0.0
2015-Mar-27 00:34N 47°38' W 122°23'0 0.0
2015-Mar-27 00:30N 47°38' W 122°23'0 0.0
2015-Mar-26 23:34N 47°38' W 122°23'0 0.0
2015-Mar-26 23:30N 47°38' W 122°23'1 1.2
2015-Mar-26 22:34N 47°37' W 122°24'1 7.4
2015-Mar-26 22:29N 47°37' W 122°25'6 6.3
2015-Mar-26 21:34N 47°34' W 122°33'0 0.0
2015-Mar-26 21:29N 47°34' W 122°33'0 0.0
2015-Mar-26 20:34N 47°34' W 122°33'0 0.0
2015-Mar-26 20:29N 47°34' W 122°33'0 0.0
2015-Mar-26 19:34N 47°34' W 122°33'0 0.0
2015-Mar-26 19:22N 47°34' W 122°33'0 0.0
2015-Mar-26 18:33N 47°34' W 122°33'0 0.0
2015-Mar-26 17:34N 47°34' W 122°33'0 0.0
2015-Mar-26 17:13N 47°34' W 122°33'0 0.0
2015-Mar-26 16:34N 47°34' W 122°33'0 0.0
2015-Mar-26 16:16N 47°34' W 122°33'0 0.0
2015-Mar-26 15:34N 47°34' W 122°33'0 0.0
2015-Mar-26 15:31N 47°34' W 122°33'2 1.8
2015-Mar-26 14:34N 47°34' W 122°30'0 6.5
2015-Mar-26 14:31N 47°34' W 122°30'6 5.9
2015-Mar-26 13:34N 47°38' W 122°23'0 0.0
2015-Mar-26 13:31N 47°38' W 122°23'0 0.0
2015-Mar-26 12:33N 47°38' W 122°23'0 0.0
2015-Mar-26 12:31N 47°38' W 122°23'0 0.0
2015-Mar-26 11:33N 47°38' W 122°23'0 0.0
2015-Mar-26 11:31N 47°38' W 122°23'0 0.0
2015-Mar-26 10:34N 47°38' W 122°23'0 0.0
2015-Mar-26 10:31N 47°38' W 122°23'0 0.0
2015-Mar-26 09:33N 47°38' W 122°23'0 0.0
2015-Mar-26 09:31N 47°38' W 122°23'0 0.0
2015-Mar-26 08:33N 47°38' W 122°23'0 0.0
2015-Mar-26 08:30N 47°38' W 122°23'0 0.0
2015-Mar-26 07:34N 47°38' W 122°23'0 0.0
2015-Mar-26 07:30N 47°38' W 122°23'0 0.0
2015-Mar-26 06:34N 47°38' W 122°23'0 0.0
2015-Mar-26 06:30N 47°38' W 122°23'0 0.0
2015-Mar-26 06:10N 47°38' W 122°23'0 0.0
2015-Mar-26 05:34N 47°38' W 122°23'0 0.0
2015-Mar-26 04:34N 47°38' W 122°23'0 0.0
2015-Mar-26 04:30N 47°38' W 122°23'0 0.0
2015-Mar-26 03:33N 47°38' W 122°23'0 0.0
2015-Mar-26 03:29N 47°38' W 122°23'0 0.0
2015-Mar-26 02:33N 47°38' W 122°23'0 0.0
2015-Mar-26 02:30N 47°38' W 122°23'0 0.0
2015-Mar-26 01:33N 47°38' W 122°23'0 0.0
2015-Mar-26 01:30N 47°38' W 122°23'0 0.0
2015-Mar-26 00:33N 47°38' W 122°23'0 0.0
2015-Mar-26 00:30N 47°38' W 122°23'0 0.0
2015-Mar-25 23:34N 47°38' W 122°23'0 0.0
2015-Mar-25 23:30N 47°38' W 122°23'0 0.0
2015-Mar-25 22:34N 47°38' W 122°23'0 0.0
2015-Mar-25 22:29N 47°38' W 122°23'0 0.0
2015-Mar-25 21:32N 47°38' W 122°23'0 0.0
2015-Mar-25 21:29N 47°38' W 122°23'0 0.0
2015-Mar-25 20:34N 47°38' W 122°23'0 0.0
2015-Mar-25 20:24N 47°38' W 122°23'0 0.0
2015-Mar-25 19:33N 47°38' W 122°23'0 0.1
2015-Mar-25 19:29N 47°38' W 122°23'0 0.0
2015-Mar-25 18:34N 47°38' W 122°23'0 0.0
2015-Mar-25 18:29N 47°38' W 122°23'0 0.0
2015-Mar-25 17:33N 47°38' W 122°23'0 0.0
2015-Mar-25 17:29N 47°38' W 122°23'0 0.0
2015-Mar-25 16:34N 47°38' W 122°23'0 0.0
2015-Mar-25 16:29N 47°38' W 122°23'0 0.0
2015-Mar-25 15:34N 47°38' W 122°23'0 0.0
2015-Mar-25 15:29N 47°38' W 122°23'0 0.0
2015-Mar-25 14:34N 47°38' W 122°23'0 0.0
2015-Mar-25 13:42N 47°38' W 122°23'0 0.0
2015-Mar-25 13:33N 47°38' W 122°23'0 0.0
2015-Mar-25 13:32N 47°38' W 122°23'0 0.0
2015-Mar-25 12:33N 47°38' W 122°23'0 0.0
2015-Mar-25 12:32N 47°38' W 122°23'0 0.0
2015-Mar-25 11:34N 47°38' W 122°23'0 0.0
2015-Mar-25 11:31N 47°38' W 122°23'0 0.0
2015-Mar-25 10:34N 47°38' W 122°23'0 0.0
2015-Mar-25 10:31N 47°38' W 122°23'0 0.0
2015-Mar-25 09:33N 47°38' W 122°23'0 0.0
2015-Mar-25 09:31N 47°38' W 122°23'0 0.0
2015-Mar-25 08:34N 47°38' W 122°23'0 0.0
2015-Mar-25 08:31N 47°38' W 122°23'0 0.0
2015-Mar-25 07:34N 47°38' W 122°23'0 0.0
2015-Mar-25 07:31N 47°38' W 122°23'0 0.0
2015-Mar-25 06:33N 47°38' W 122°23'0 0.0
2015-Mar-25 06:31N 47°38' W 122°23'0 0.0
2015-Mar-25 06:01N 47°38' W 122°23'0 0.0
2015-Mar-25 05:34N 47°38' W 122°23'0 0.0
2015-Mar-25 04:34N 47°38' W 122°23'0 0.0
2015-Mar-25 04:31N 47°38' W 122°23'0 0.0
2015-Mar-25 03:34N 47°38' W 122°23'0 0.0
2015-Mar-25 03:30N 47°38' W 122°23'0 0.0
2015-Mar-25 02:34N 47°38' W 122°23'0 0.0
2015-Mar-25 02:30N 47°38' W 122°23'0 0.0
2015-Mar-25 01:33N 47°38' W 122°23'0 0.0
2015-Mar-25 01:30N 47°38' W 122°23'0 0.0
2015-Mar-25 00:33N 47°38' W 122°23'0 0.1
2015-Mar-25 00:29N 47°38' W 122°23'0 0.0
2015-Mar-24 23:33N 47°38' W 122°23'0 0.0
2015-Mar-24 23:30N 47°38' W 122°23'5 5.3
2015-Mar-24 22:33N 47°35' W 122°29'1 8.2
2015-Mar-24 22:30N 47°35' W 122°29'2 2.3
2015-Mar-24 21:34N 47°34' W 122°33'0 0.0
2015-Mar-24 21:30N 47°34' W 122°33'0 0.0
2015-Mar-24 20:34N 47°34' W 122°33'0 0.0
2015-Mar-24 20:30N 47°34' W 122°33'0 0.0
2015-Mar-24 19:34N 47°34' W 122°33'0 0.2
2015-Mar-24 19:30N 47°34' W 122°33'0 0.1
2015-Mar-24 18:34N 47°34' W 122°33'0 0.0
2015-Mar-24 18:29N 47°34' W 122°33'0 0.0
2015-Mar-24 17:34N 47°34' W 122°33'0 0.0
2015-Mar-24 17:25N 47°34' W 122°33'0 0.0
2015-Mar-24 16:34N 47°34' W 122°33'0 0.1
2015-Mar-24 16:29N 47°34' W 122°33'0 0.0
2015-Mar-24 15:34N 47°34' W 122°33'0 0.0
2015-Mar-24 15:29N 47°34' W 122°33'1 1.6
2015-Mar-24 14:33N 47°34' W 122°30'1 7.7
2015-Mar-24 14:29N 47°35' W 122°29'6 6.0
2015-Mar-24 13:33N 47°38' W 122°23'0 0.0
2015-Mar-24 13:29N 47°38' W 122°23'0 0.0
2015-Mar-24 12:34N 47°38' W 122°23'0 0.0
2015-Mar-24 12:29N 47°38' W 122°23'0 0.0
2015-Mar-24 11:33N 47°38' W 122°23'0 0.0
2015-Mar-24 11:29N 47°38' W 122°23'0 0.0
2015-Mar-24 10:34N 47°38' W 122°23'0 0.0
2015-Mar-24 10:29N 47°38' W 122°23'0 0.0
2015-Mar-24 09:31N 47°38' W 122°23'0 0.0
2015-Mar-24 08:36N 47°38' W 122°23'0 0.0
2015-Mar-24 08:33N 47°38' W 122°23'0 0.0
2015-Mar-24 08:32N 47°38' W 122°23'0 0.0
2015-Mar-24 07:33N 47°38' W 122°23'0 0.0
2015-Mar-24 07:31N 47°38' W 122°23'0 0.0
2015-Mar-24 06:34N 47°38' W 122°23'0 0.0
2015-Mar-24 06:31N 47°38' W 122°23'0 0.0
2015-Mar-24 06:06N 47°38' W 122°23'0 0.0
2015-Mar-24 05:33N 47°38' W 122°23'0 0.0
2015-Mar-24 04:34N 47°38' W 122°23'0 0.0
2015-Mar-24 04:31N 47°38' W 122°23'0 0.0
2015-Mar-24 03:33N 47°38' W 122°23'0 0.0
2015-Mar-24 03:31N 47°38' W 122°23'0 0.0
2015-Mar-24 02:33N 47°38' W 122°23'0 0.0
2015-Mar-24 02:31N 47°38' W 122°23'0 0.0
2015-Mar-24 01:33N 47°38' W 122°23'0 0.0
2015-Mar-24 01:31N 47°38' W 122°23'0 0.0
2015-Mar-24 00:33N 47°38' W 122°23'0 0.0
2015-Mar-24 00:31N 47°38' W 122°23'0 0.0
2015-Mar-23 23:34N 47°38' W 122°23'0 0.1
2015-Mar-23 23:31N 47°38' W 122°23'0 0.0
2015-Mar-23 22:34N 47°38' W 122°23'0 0.2
2015-Mar-23 22:30N 47°38' W 122°23'0 0.0
2015-Mar-23 21:34N 47°38' W 122°23'0 0.0
2015-Mar-23 21:30N 47°38' W 122°23'0 0.0
2015-Mar-23 20:34N 47°38' W 122°23'0 0.0
2015-Mar-23 20:30N 47°38' W 122°23'0 0.0
2015-Mar-23 19:34N 47°38' W 122°23'0 0.0
2015-Mar-23 19:30N 47°38' W 122°23'0 0.0
2015-Mar-23 18:34N 47°38' W 122°23'0 0.0
2015-Mar-23 18:30N 47°38' W 122°23'0 0.0
2015-Mar-23 17:34N 47°38' W 122°23'0 0.0
2015-Mar-23 17:30N 47°38' W 122°23'0 0.0
2015-Mar-23 16:34N 47°38' W 122°23'0 0.1
2015-Mar-23 16:30N 47°38' W 122°23'0 0.0
2015-Mar-23 15:34N 47°38' W 122°23'0 0.0
2015-Mar-23 15:30N 47°38' W 122°23'0 0.0
2015-Mar-23 14:34N 47°38' W 122°23'0 0.0
2015-Mar-23 14:24N 47°38' W 122°23'0 0.0
2015-Mar-23 13:34N 47°38' W 122°23'0 0.0
2015-Mar-23 13:29N 47°38' W 122°23'0 0.0
2015-Mar-23 12:34N 47°38' W 122°23'0 0.0
2015-Mar-23 12:29N 47°38' W 122°23'0 0.0
2015-Mar-23 11:34N 47°38' W 122°23'0 0.0
2015-Mar-23 11:29N 47°38' W 122°23'0 0.0
2015-Mar-23 10:34N 47°38' W 122°23'0 0.1
2015-Mar-23 10:29N 47°38' W 122°23'0 0.0
2015-Mar-23 09:34N 47°38' W 122°23'0 0.1
2015-Mar-23 09:29N 47°38' W 122°23'0 0.0
2015-Mar-23 08:34N 47°38' W 122°23'0 0.0
2015-Mar-23 08:18N 47°38' W 122°23'0 0.0
2015-Mar-23 07:34N 47°38' W 122°23'0 0.0
2015-Mar-23 07:32N 47°38' W 122°23'0 0.0
2015-Mar-23 06:34N 47°38' W 122°23'0 0.0
2015-Mar-23 06:32N 47°38' W 122°23'0 0.0
2015-Mar-23 06:02N 47°38' W 122°23'0 0.0
2015-Mar-23 05:34N 47°38' W 122°23'0 0.0
2015-Mar-23 04:34N 47°38' W 122°23'0 0.0
2015-Mar-23 04:32N 47°38' W 122°23'0 0.0
2015-Mar-23 03:33N 47°38' W 122°23'0 0.0
2015-Mar-23 03:32N 47°38' W 122°23'0 0.0
2015-Mar-23 02:34N 47°38' W 122°23'0 0.0
2015-Mar-23 02:32N 47°38' W 122°23'0 0.0
2015-Mar-23 01:34N 47°38' W 122°23'0 0.0
2015-Mar-23 01:32N 47°38' W 122°23'0 0.3
2015-Mar-23 00:34N 47°38' W 122°23'0 3.8
2015-Mar-23 00:31N 47°38' W 122°23'7 7.0
2015-Mar-22 23:34N 47°34' W 122°32'0 7.0
2015-Mar-22 23:31N 47°34' W 122°32'0 0.1
2015-Mar-22 22:34N 47°34' W 122°33'0 0.0
2015-Mar-22 22:31N 47°34' W 122°33'0 0.0
2015-Mar-22 21:33N 47°34' W 122°33'0 0.0
2015-Mar-22 21:25N 47°34' W 122°33'0 0.0
2015-Mar-22 20:34N 47°34' W 122°33'0 0.0
2015-Mar-22 20:31N 47°34' W 122°33'0 0.0
2015-Mar-22 19:34N 47°34' W 122°33'0 0.0
2015-Mar-22 19:31N 47°34' W 122°33'0 0.0
2015-Mar-22 18:33N 47°34' W 122°33'0 0.0
2015-Mar-22 18:30N 47°34' W 122°33'0 0.1
2015-Mar-22 17:34N 47°34' W 122°32'0 0.0
2015-Mar-22 17:31N 47°34' W 122°32'0 0.0
2015-Mar-22 16:34N 47°34' W 122°32'0 0.0
2015-Mar-22 16:30N 47°34' W 122°32'0 0.0
2015-Mar-22 15:34N 47°34' W 122°32'0 0.0
2015-Mar-22 15:30N 47°34' W 122°32'2 2.2
2015-Mar-22 14:34N 47°35' W 122°29'0 6.8
2015-Mar-22 14:30N 47°35' W 122°29'5 5.4
2015-Mar-22 13:34N 47°38' W 122°23'0 0.0
2015-Mar-22 13:30N 47°38' W 122°23'0 0.0
2015-Mar-22 12:34N 47°38' W 122°23'0 0.0
2015-Mar-22 12:30N 47°38' W 122°23'0 0.0
2015-Mar-22 11:34N 47°38' W 122°23'0 0.0
2015-Mar-22 11:30N 47°38' W 122°23'0 0.0
2015-Mar-22 10:34N 47°38' W 122°23'0 0.0
2015-Mar-22 10:18N 47°38' W 122°23'0 0.0
2015-Mar-22 09:34N 47°38' W 122°23'0 0.0
2015-Mar-22 09:29N 47°38' W 122°23'0 0.0
2015-Mar-22 08:34N 47°38' W 122°23'0 0.0
2015-Mar-22 08:29N 47°38' W 122°23'0 0.0
2015-Mar-22 07:34N 47°38' W 122°23'0 0.0
2015-Mar-22 07:29N 47°38' W 122°23'0 0.0
2015-Mar-22 06:34N 47°38' W 122°23'0 0.0
2015-Mar-22 06:29N 47°38' W 122°23'0 0.0
2015-Mar-22 06:04N 47°38' W 122°23'0 0.0
2015-Mar-22 05:33N 47°38' W 122°23'0 0.0
2015-Mar-22 04:33N 47°38' W 122°23'0 0.0
2015-Mar-22 04:29N 47°38' W 122°23'0 0.0
2015-Mar-22 03:33N 47°38' W 122°23'0 0.0
2015-Mar-22 03:29N 47°38' W 122°23'0 0.0
2015-Mar-22 02:34N 47°38' W 122°23'0 0.0
2015-Mar-22 02:34N 47°38' W 122°23'0 0.0
2015-Mar-22 01:33N 47°38' W 122°23'0 0.0
2015-Mar-22 01:33N 47°38' W 122°23'0 0.0
2015-Mar-22 00:33N 47°38' W 122°23'0 0.0
2015-Mar-22 00:32N 47°38' W 122°23'0 0.0
2015-Mar-21 23:33N 47°38' W 122°23'0 0.0
2015-Mar-21 23:32N 47°38' W 122°23'0 0.0
2015-Mar-21 22:33N 47°38' W 122°23'0 0.0
2015-Mar-21 22:32N 47°38' W 122°23'0 0.0
2015-Mar-21 21:33N 47°38' W 122°23'0 0.0
2015-Mar-21 21:32N 47°38' W 122°23'0 0.0
2015-Mar-21 20:33N 47°38' W 122°23'0 0.0
2015-Mar-21 20:32N 47°38' W 122°23'0 0.0
2015-Mar-21 19:33N 47°38' W 122°23'0 0.0
2015-Mar-21 19:32N 47°38' W 122°23'0 0.0
2015-Mar-21 18:33N 47°38' W 122°23'0 0.0
2015-Mar-21 18:32N 47°38' W 122°23'0 0.0
2015-Mar-21 17:33N 47°38' W 122°23'0 0.0
2015-Mar-21 17:26N 47°38' W 122°23'0 0.0
2015-Mar-21 16:33N 47°38' W 122°23'0 0.1
2015-Mar-21 16:31N 47°38' W 122°23'0 0.0
2015-Mar-21 15:33N 47°38' W 122°23'0 0.1
2015-Mar-21 15:31N 47°38' W 122°23'0 0.0
2015-Mar-21 14:34N 47°38' W 122°23'0 0.0
2015-Mar-21 14:30N 47°38' W 122°23'0 0.0
2015-Mar-21 13:33N 47°38' W 122°23'0 0.0
2015-Mar-21 13:30N 47°38' W 122°23'0 0.0
2015-Mar-21 12:33N 47°38' W 122°23'0 0.0
2015-Mar-21 12:30N 47°38' W 122°23'0 0.0
2015-Mar-21 11:33N 47°38' W 122°23'0 0.0
2015-Mar-21 11:30N 47°38' W 122°23'0 0.0
2015-Mar-21 10:33N 47°38' W 122°23'0 0.0
2015-Mar-21 10:30N 47°38' W 122°23'0 0.0
2015-Mar-21 09:33N 47°38' W 122°23'0 0.0
2015-Mar-21 09:03N 47°38' W 122°23'0 0.0
2015-Mar-21 08:33N 47°38' W 122°23'0 0.0
2015-Mar-21 08:33N 47°38' W 122°23'0 0.0
2015-Mar-21 07:33N 47°38' W 122°23'0 0.0
2015-Mar-21 07:33N 47°38' W 122°23'0 0.0
2015-Mar-21 06:33N 47°38' W 122°23'0 0.0
2015-Mar-21 06:32N 47°38' W 122°23'0 0.0
2015-Mar-21 06:13N 47°38' W 122°23'0 0.0
2015-Mar-21 05:33N 47°38' W 122°23'0 0.0
2015-Mar-21 04:33N 47°38' W 122°23'0 0.0
2015-Mar-21 04:32N 47°38' W 122°23'0 0.0
2015-Mar-21 03:33N 47°38' W 122°23'0 0.0
2015-Mar-21 03:32N 47°38' W 122°23'0 0.0
2015-Mar-21 02:33N 47°38' W 122°23'0 0.0
2015-Mar-21 02:32N 47°38' W 122°23'0 0.0
2015-Mar-21 01:33N 47°38' W 122°23'0 0.0
2015-Mar-21 01:31N 47°38' W 122°23'0 0.0
2015-Mar-21 00:33N 47°38' W 122°23'0 0.0
2015-Mar-21 00:31N 47°38' W 122°23'0 0.0
2015-Mar-20 23:33N 47°38' W 122°23'0 0.0
2015-Mar-20 23:31N 47°38' W 122°23'0 0.0
2015-Mar-20 22:33N 47°38' W 122°23'0 0.1
2015-Mar-20 22:31N 47°38' W 122°23'5 5.7
2015-Mar-20 21:33N 47°42' W 122°28'0 8.2
2015-Mar-20 21:30N 47°43' W 122°28'8 8.3
2015-Mar-20 20:33N 47°51' W 122°29'0 7.8
2015-Mar-20 20:30N 47°51' W 122°29'  
Track history (hours):
 
Tides and Currents Weather Stations Pressure Air Temp Water Temp Dewpoint Dewpoint Depression Visibility Wind Speed Wind Dir Waves Ship Positions

F/V Harvestor

Owner: F/V HARVESTOR INC., EDMONDS, WA. More information available from US FCC via Universal Licensing System and Coast Guard Vessel Documentation Center.

Last reported at 2015-Mar-30 19:34 UTC. Time now 2015-Mar-30 20:03 UTC.
Position N 47°38' W 122°23'.

Length 40 m.

Type: Fishing. MMSI: 367083650.

Date/timePositionNaut miles runAvg speedWind from/ knotsBaromVisibWave heightAir tempDewpointWater temp
2015-Mar-30 19:34N 47°38' W 122°23'0 0.0
2015-Mar-30 19:33N 47°38' W 122°23'0 0.0
2015-Mar-30 18:34N 47°38' W 122°23'0 0.0
2015-Mar-30 18:33N 47°38' W 122°23'0 0.0
2015-Mar-30 17:34N 47°38' W 122°23'0 0.1
2015-Mar-30 17:26N 47°38' W 122°23'0 0.0
2015-Mar-30 16:34N 47°38' W 122°23'0 0.0
2015-Mar-30 16:31N 47°38' W 122°23'0 0.0
2015-Mar-30 15:34N 47°38' W 122°23'0 0.0
2015-Mar-30 15:31N 47°38' W 122°23'0 0.0
2015-Mar-30 14:34N 47°38' W 122°23'0 0.1
2015-Mar-30 14:31N 47°38' W 122°23'0 0.0
2015-Mar-30 13:34N 47°38' W 122°23'0 0.0
2015-Mar-30 13:31N 47°38' W 122°23'0 0.0
2015-Mar-30 12:34N 47°38' W 122°23'0 0.1
2015-Mar-30 12:31N 47°38' W 122°23'0 0.0
2015-Mar-30 11:34N 47°38' W 122°23'0 0.1
2015-Mar-30 11:31N 47°38' W 122°23'0 0.0
2015-Mar-30 10:34N 47°38' W 122°23'0 0.0
2015-Mar-30 10:31N 47°38' W 122°23'0 0.0
2015-Mar-30 09:34N 47°38' W 122°23'0 0.0
2015-Mar-30 09:31N 47°38' W 122°23'0 0.0
2015-Mar-30 08:34N 47°38' W 122°23'0 0.0
2015-Mar-30 08:31N 47°38' W 122°23'0 0.0
2015-Mar-30 07:34N 47°38' W 122°23'0 0.0
2015-Mar-30 07:31N 47°38' W 122°23'0 0.0
2015-Mar-30 05:22N 47°38' W 122°23'0 0.0
2015-Mar-30 05:21N 47°38' W 122°23'0 0.0
2015-Mar-30 04:32N 47°38' W 122°23'0 0.0
2015-Mar-30 03:55N 47°38' W 122°23'0 0.0
2015-Mar-30 03:34N 47°38' W 122°23'0 0.0
2015-Mar-30 03:30N 47°38' W 122°23'0 0.0
2015-Mar-30 02:34N 47°38' W 122°23'0 0.0
2015-Mar-30 02:30N 47°38' W 122°23'0 0.0
2015-Mar-30 01:34N 47°38' W 122°23'0 0.0
2015-Mar-30 01:30N 47°38' W 122°23'0 0.0
2015-Mar-30 00:33N 47°38' W 122°23'0 0.0
2015-Mar-30 00:30N 47°38' W 122°23'0 0.0
2015-Mar-29 23:33N 47°38' W 122°23'0 0.0
2015-Mar-29 23:30N 47°38' W 122°23'6 6.9
2015-Mar-29 22:34N 47°34' W 122°31'0 6.4
2015-Mar-29 22:30N 47°34' W 122°32'1 0.7
2015-Mar-29 21:34N 47°34' W 122°33'0 0.0
2015-Mar-29 21:30N 47°34' W 122°33'0 0.0
2015-Mar-29 20:34N 47°34' W 122°33'0 0.0
2015-Mar-29 20:30N 47°34' W 122°33'0 0.0
2015-Mar-29 19:34N 47°34' W 122°33'0 0.1
2015-Mar-29 19:30N 47°34' W 122°33'0 0.0
2015-Mar-29 18:34N 47°34' W 122°33'0 0.0
2015-Mar-29 18:29N 47°34' W 122°33'0 0.0
2015-Mar-29 17:34N 47°34' W 122°33'0 0.1
2015-Mar-29 17:29N 47°34' W 122°33'0 0.0
2015-Mar-29 16:33N 47°34' W 122°33'0 0.5
2015-Mar-29 16:29N 47°34' W 122°33'0 0.0
2015-Mar-29 15:33N 47°34' W 122°33'0 0.0
2015-Mar-29 15:29N 47°34' W 122°33'4 4.0
2015-Mar-29 14:34N 47°36' W 122°27'1 7.9
2015-Mar-29 14:28N 47°36' W 122°27'3 3.4
2015-Mar-29 13:34N 47°38' W 122°23'0 0.1
2015-Mar-29 13:29N 47°38' W 122°23'0 0.0
2015-Mar-29 12:34N 47°38' W 122°23'0 0.5
2015-Mar-29 12:33N 47°38' W 122°23'0 0.0
2015-Mar-29 11:34N 47°38' W 122°23'0 0.0
2015-Mar-29 11:33N 47°38' W 122°23'0 0.0
2015-Mar-29 10:34N 47°38' W 122°23'0 0.0
2015-Mar-29 10:22N 47°38' W 122°23'0 0.0
2015-Mar-29 09:34N 47°38' W 122°23'0 0.0
2015-Mar-29 09:33N 47°38' W 122°23'0 0.0
2015-Mar-29 08:34N 47°38' W 122°23'0 0.3
2015-Mar-29 08:32N 47°38' W 122°23'0 0.0
2015-Mar-29 07:34N 47°38' W 122°23'0 0.0
2015-Mar-29 07:32N 47°38' W 122°23'0 0.0
2015-Mar-29 06:34N 47°38' W 122°23'0 0.0
2015-Mar-29 06:32N 47°38' W 122°23'0 0.0
2015-Mar-29 06:02N 47°38' W 122°23'0 0.0
2015-Mar-29 05:34N 47°38' W 122°23'0 0.0
2015-Mar-29 04:33N 47°38' W 122°23'0 0.2
2015-Mar-29 04:32N 47°38' W 122°23'0 0.0
2015-Mar-29 03:33N 47°38' W 122°23'0 0.3
2015-Mar-29 03:32N 47°38' W 122°23'0 0.0
2015-Mar-29 02:34N 47°38' W 122°23'0 0.2
2015-Mar-29 02:32N 47°38' W 122°23'0 0.0
2015-Mar-29 01:34N 47°38' W 122°23'0 0.0
2015-Mar-29 01:32N 47°38' W 122°23'0 0.0
2015-Mar-29 00:34N 47°38' W 122°23'0 0.2
2015-Mar-29 00:32N 47°38' W 122°23'0 0.0
2015-Mar-28 23:34N 47°38' W 122°23'0 0.0
2015-Mar-28 23:27N 47°38' W 122°23'0 0.0
2015-Mar-28 22:34N 47°38' W 122°23'0 0.2
2015-Mar-28 22:32N 47°38' W 122°23'0 0.0
2015-Mar-28 21:34N 47°38' W 122°23'0 0.2
2015-Mar-28 21:32N 47°38' W 122°23'0 0.0
2015-Mar-28 20:33N 47°38' W 122°23'0 0.0
2015-Mar-28 20:32N 47°38' W 122°23'0 0.0
2015-Mar-28 19:34N 47°38' W 122°23'0 0.1
2015-Mar-28 19:27N 47°38' W 122°23'0 0.0
2015-Mar-28 18:34N 47°38' W 122°23'0 0.0
2015-Mar-28 18:10N 47°38' W 122°23'0 0.0
2015-Mar-28 17:33N 47°38' W 122°23'0 0.0
2015-Mar-28 17:30N 47°38' W 122°23'0 0.0
2015-Mar-28 16:33N 47°38' W 122°23'0 0.0
2015-Mar-28 16:08N 47°38' W 122°23'0 0.0
2015-Mar-28 15:33N 47°38' W 122°23'0 0.0
2015-Mar-28 15:33N 47°38' W 122°23'0 0.0
2015-Mar-28 14:34N 47°38' W 122°23'0 0.0
2015-Mar-28 14:22N 47°38' W 122°23'0 0.0
2015-Mar-28 13:34N 47°38' W 122°23'0 0.0
2015-Mar-28 13:20N 47°38' W 122°23'0 0.0
2015-Mar-28 12:34N 47°38' W 122°23'0 0.0
2015-Mar-28 12:30N 47°38' W 122°23'0 0.0
2015-Mar-28 11:34N 47°38' W 122°23'0 0.0
2015-Mar-28 11:30N 47°38' W 122°23'0 0.0
2015-Mar-28 10:33N 47°38' W 122°23'0 0.1
2015-Mar-28 10:30N 47°38' W 122°23'0 0.0
2015-Mar-28 09:34N 47°38' W 122°23'0 0.0
2015-Mar-28 09:30N 47°38' W 122°23'0 0.0
2015-Mar-28 08:33N 47°38' W 122°23'0 0.0
2015-Mar-28 08:29N 47°38' W 122°23'0 0.0
2015-Mar-28 07:34N 47°38' W 122°23'0 0.0
2015-Mar-28 07:29N 47°38' W 122°23'0 0.0
2015-Mar-28 06:44N 47°38' W 122°23'0 0.0
2015-Mar-28 06:34N 47°38' W 122°23'0 0.0
2015-Mar-28 05:34N 47°38' W 122°23'0 0.0
2015-Mar-28 05:29N 47°38' W 122°23'0 0.0
2015-Mar-28 04:33N 47°38' W 122°23'0 0.0
2015-Mar-28 04:32N 47°38' W 122°23'0 0.0
2015-Mar-28 03:33N 47°38' W 122°23'0 0.5
2015-Mar-28 03:32N 47°38' W 122°23'0 0.0
2015-Mar-28 02:33N 47°38' W 122°23'0 0.0
2015-Mar-28 02:32N 47°38' W 122°23'0 0.0
2015-Mar-28 01:33N 47°38' W 122°23'0 0.3
2015-Mar-28 01:32N 47°38' W 122°23'0 0.0
2015-Mar-28 00:34N 47°38' W 122°23'0 0.0
2015-Mar-28 00:32N 47°38' W 122°23'0 0.0
2015-Mar-27 23:33N 47°38' W 122°23'0 0.0
2015-Mar-27 23:32N 47°38' W 122°23'0 0.0
2015-Mar-27 22:34N 47°38' W 122°23'0 0.2
2015-Mar-27 22:32N 47°38' W 122°23'0 0.0
2015-Mar-27 21:34N 47°38' W 122°23'0 0.0
2015-Mar-27 21:32N 47°38' W 122°23'0 0.0
2015-Mar-27 20:33N 47°38' W 122°23'0 0.0
2015-Mar-27 20:32N 47°38' W 122°23'0 0.0
2015-Mar-27 19:33N 47°38' W 122°23'0 0.0
2015-Mar-27 18:38N 47°38' W 122°23'0 0.0
2015-Mar-27 18:33N 47°38' W 122°23'0 0.1
2015-Mar-27 18:28N 47°38' W 122°23'0 0.0
2015-Mar-27 17:34N 47°38' W 122°23'0 0.0
2015-Mar-27 17:16N 47°38' W 122°23'0 0.0
2015-Mar-27 16:34N 47°38' W 122°23'0 0.1
2015-Mar-27 16:30N 47°38' W 122°23'0 0.0
2015-Mar-27 15:34N 47°38' W 122°23'0 0.0
2015-Mar-27 15:30N 47°38' W 122°23'0 0.0
2015-Mar-27 14:33N 47°38' W 122°23'0 0.1
2015-Mar-27 14:30N 47°38' W 122°23'0 0.0
2015-Mar-27 13:34N 47°38' W 122°23'0 0.0
2015-Mar-27 13:30N 47°38' W 122°23'0 0.0
2015-Mar-27 12:33N 47°38' W 122°23'0 0.0
2015-Mar-27 12:30N 47°38' W 122°23'0 0.0
2015-Mar-27 11:34N 47°38' W 122°23'0 0.1
2015-Mar-27 11:29N 47°38' W 122°23'0 0.0
2015-Mar-27 10:33N 47°38' W 122°23'0 0.0
2015-Mar-27 10:30N 47°38' W 122°23'0 0.0
2015-Mar-27 09:34N 47°38' W 122°23'0 0.0
2015-Mar-27 09:30N 47°38' W 122°23'0 0.0
2015-Mar-27 08:33N 47°38' W 122°23'0 0.0
2015-Mar-27 08:29N 47°38' W 122°23'0 0.0
2015-Mar-27 07:33N 47°38' W 122°23'0 0.0
2015-Mar-27 07:30N 47°38' W 122°23'0 0.0
2015-Mar-27 06:30N 47°38' W 122°23'0 0.0
2015-Mar-27 05:30N 47°38' W 122°23'0 0.1
2015-Mar-27 05:26N 47°38' W 122°23'0 0.0
2015-Mar-27 04:33N 47°38' W 122°23'0 0.0
2015-Mar-27 04:30N 47°38' W 122°23'0 0.0
2015-Mar-27 03:33N 47°38' W 122°23'0 0.0
2015-Mar-27 03:30N 47°38' W 122°23'0 0.0
2015-Mar-27 02:33N 47°38' W 122°23'0 0.0
2015-Mar-27 02:30N 47°38' W 122°23'0 0.0
2015-Mar-27 01:33N 47°38' W 122°23'0 0.0
2015-Mar-27 01:30N 47°38' W 122°23'0 0.0
2015-Mar-27 00:34N 47°38' W 122°23'0 0.0
2015-Mar-27 00:30N 47°38' W 122°23'0 0.0
2015-Mar-26 23:34N 47°38' W 122°23'0 0.0
2015-Mar-26 23:30N 47°38' W 122°23'1 1.2
2015-Mar-26 22:34N 47°37' W 122°24'1 7.4
2015-Mar-26 22:29N 47°37' W 122°25'6 6.3
2015-Mar-26 21:34N 47°34' W 122°33'0 0.0
2015-Mar-26 21:29N 47°34' W 122°33'0 0.0
2015-Mar-26 20:34N 47°34' W 122°33'0 0.0
2015-Mar-26 20:29N 47°34' W 122°33'0 0.0
2015-Mar-26 19:34N 47°34' W 122°33'0 0.0
2015-Mar-26 19:22N 47°34' W 122°33'0 0.0
2015-Mar-26 18:33N 47°34' W 122°33'0 0.0
2015-Mar-26 17:34N 47°34' W 122°33'0 0.0
2015-Mar-26 17:13N 47°34' W 122°33'0 0.0
2015-Mar-26 16:34N 47°34' W 122°33'0 0.0
2015-Mar-26 16:16N 47°34' W 122°33'0 0.0
2015-Mar-26 15:34N 47°34' W 122°33'0 0.0
2015-Mar-26 15:31N 47°34' W 122°33'2 1.8
2015-Mar-26 14:34N 47°34' W 122°30'0 6.5
2015-Mar-26 14:31N 47°34' W 122°30'6 5.9
2015-Mar-26 13:34N 47°38' W 122°23'0 0.0
2015-Mar-26 13:31N 47°38' W 122°23'0 0.0
2015-Mar-26 12:33N 47°38' W 122°23'0 0.0
2015-Mar-26 12:31N 47°38' W 122°23'0 0.0
2015-Mar-26 11:33N 47°38' W 122°23'0 0.0
2015-Mar-26 11:31N 47°38' W 122°23'0 0.0
2015-Mar-26 10:34N 47°38' W 122°23'0 0.0
2015-Mar-26 10:31N 47°38' W 122°23'0 0.0
2015-Mar-26 09:33N 47°38' W 122°23'0 0.0
2015-Mar-26 09:31N 47°38' W 122°23'0 0.0
2015-Mar-26 08:33N 47°38' W 122°23'0 0.0
2015-Mar-26 08:30N 47°38' W 122°23'0 0.0
2015-Mar-26 07:34N 47°38' W 122°23'0 0.0
2015-Mar-26 07:30N 47°38' W 122°23'0 0.0
2015-Mar-26 06:34N 47°38' W 122°23'0 0.0
2015-Mar-26 06:30N 47°38' W 122°23'0 0.0
2015-Mar-26 06:10N 47°38' W 122°23'0 0.0
2015-Mar-26 05:34N 47°38' W 122°23'0 0.0
2015-Mar-26 04:34N 47°38' W 122°23'0 0.0
2015-Mar-26 04:30N 47°38' W 122°23'0 0.0
2015-Mar-26 03:33N 47°38' W 122°23'0 0.0
2015-Mar-26 03:29N 47°38' W 122°23'0 0.0
2015-Mar-26 02:33N 47°38' W 122°23'0 0.0
2015-Mar-26 02:30N 47°38' W 122°23'0 0.0
2015-Mar-26 01:33N 47°38' W 122°23'0 0.0
2015-Mar-26 01:30N 47°38' W 122°23'0 0.0
2015-Mar-26 00:33N 47°38' W 122°23'0 0.0
2015-Mar-26 00:30N 47°38' W 122°23'0 0.0
2015-Mar-25 23:34N 47°38' W 122°23'0 0.0
2015-Mar-25 23:30N 47°38' W 122°23'0 0.0
2015-Mar-25 22:34N 47°38' W 122°23'0 0.0
2015-Mar-25 22:29N 47°38' W 122°23'0 0.0
2015-Mar-25 21:32N 47°38' W 122°23'0 0.0
2015-Mar-25 21:29N 47°38' W 122°23'0 0.0
2015-Mar-25 20:34N 47°38' W 122°23'0 0.0
2015-Mar-25 20:24N 47°38' W 122°23'0 0.0
2015-Mar-25 19:33N 47°38' W 122°23'0 0.1
2015-Mar-25 19:29N 47°38' W 122°23'0 0.0
2015-Mar-25 18:34N 47°38' W 122°23'0 0.0
2015-Mar-25 18:29N 47°38' W 122°23'0 0.0
2015-Mar-25 17:33N 47°38' W 122°23'0 0.0
2015-Mar-25 17:29N 47°38' W 122°23'0 0.0
2015-Mar-25 16:34N 47°38' W 122°23'0 0.0
2015-Mar-25 16:29N 47°38' W 122°23'0 0.0
2015-Mar-25 15:34N 47°38' W 122°23'0 0.0
2015-Mar-25 15:29N 47°38' W 122°23'0 0.0
2015-Mar-25 14:34N 47°38' W 122°23'0 0.0
2015-Mar-25 13:42N 47°38' W 122°23'0 0.0
2015-Mar-25 13:33N 47°38' W 122°23'0 0.0
2015-Mar-25 13:32N 47°38' W 122°23'0 0.0
2015-Mar-25 12:33N 47°38' W 122°23'0 0.0
2015-Mar-25 12:32N 47°38' W 122°23'0 0.0
2015-Mar-25 11:34N 47°38' W 122°23'0 0.0
2015-Mar-25 11:31N 47°38' W 122°23'0 0.0
2015-Mar-25 10:34N 47°38' W 122°23'0 0.0
2015-Mar-25 10:31N 47°38' W 122°23'0 0.0
2015-Mar-25 09:33N 47°38' W 122°23'0 0.0
2015-Mar-25 09:31N 47°38' W 122°23'0 0.0
2015-Mar-25 08:34N 47°38' W 122°23'0 0.0
2015-Mar-25 08:31N 47°38' W 122°23'0 0.0
2015-Mar-25 07:34N 47°38' W 122°23'0 0.0
2015-Mar-25 07:31N 47°38' W 122°23'0 0.0
2015-Mar-25 06:33N 47°38' W 122°23'0 0.0
2015-Mar-25 06:31N 47°38' W 122°23'0 0.0
2015-Mar-25 06:01N 47°38' W 122°23'0 0.0
2015-Mar-25 05:34N 47°38' W 122°23'0 0.0
2015-Mar-25 04:34N 47°38' W 122°23'0 0.0
2015-Mar-25 04:31N 47°38' W 122°23'0 0.0
2015-Mar-25 03:34N 47°38' W 122°23'0 0.0
2015-Mar-25 03:30N 47°38' W 122°23'0 0.0
2015-Mar-25 02:34N 47°38' W 122°23'0 0.0
2015-Mar-25 02:30N 47°38' W 122°23'0 0.0
2015-Mar-25 01:33N 47°38' W 122°23'0 0.0
2015-Mar-25 01:30N 47°38' W 122°23'0 0.0
2015-Mar-25 00:33N 47°38' W 122°23'0 0.1
2015-Mar-25 00:29N 47°38' W 122°23'0 0.0
2015-Mar-24 23:33N 47°38' W 122°23'0 0.0
2015-Mar-24 23:30N 47°38' W 122°23'5 5.3
2015-Mar-24 22:33N 47°35' W 122°29'1 8.2
2015-Mar-24 22:30N 47°35' W 122°29'2 2.3
2015-Mar-24 21:34N 47°34' W 122°33'0 0.0
2015-Mar-24 21:30N 47°34' W 122°33'0 0.0
2015-Mar-24 20:34N 47°34' W 122°33'0 0.0
2015-Mar-24 20:30N 47°34' W 122°33'0 0.0
2015-Mar-24 19:34N 47°34' W 122°33'0 0.2
2015-Mar-24 19:30N 47°34' W 122°33'0 0.1
2015-Mar-24 18:34N 47°34' W 122°33'0 0.0
2015-Mar-24 18:29N 47°34' W 122°33'0 0.0
2015-Mar-24 17:34N 47°34' W 122°33'0 0.0
2015-Mar-24 17:25N 47°34' W 122°33'0 0.0
2015-Mar-24 16:34N 47°34' W 122°33'0 0.1
2015-Mar-24 16:29N 47°34' W 122°33'0 0.0
2015-Mar-24 15:34N 47°34' W 122°33'0 0.0
2015-Mar-24 15:29N 47°34' W 122°33'1 1.6
2015-Mar-24 14:33N 47°34' W 122°30'1 7.7
2015-Mar-24 14:29N 47°35' W 122°29'6 6.0
2015-Mar-24 13:33N 47°38' W 122°23'0 0.0
2015-Mar-24 13:29N 47°38' W 122°23'0 0.0
2015-Mar-24 12:34N 47°38' W 122°23'0 0.0
2015-Mar-24 12:29N 47°38' W 122°23'0 0.0
2015-Mar-24 11:33N 47°38' W 122°23'0 0.0
2015-Mar-24 11:29N 47°38' W 122°23'0 0.0
2015-Mar-24 10:34N 47°38' W 122°23'0 0.0
2015-Mar-24 10:29N 47°38' W 122°23'0 0.0
2015-Mar-24 09:31N 47°38' W 122°23'0 0.0
2015-Mar-24 08:36N 47°38' W 122°23'0 0.0
2015-Mar-24 08:33N 47°38' W 122°23'0 0.0
2015-Mar-24 08:32N 47°38' W 122°23'0 0.0
2015-Mar-24 07:33N 47°38' W 122°23'0 0.0
2015-Mar-24 07:31N 47°38' W 122°23'0 0.0
2015-Mar-24 06:34N 47°38' W 122°23'0 0.0
2015-Mar-24 06:31N 47°38' W 122°23'0 0.0
2015-Mar-24 06:06N 47°38' W 122°23'0 0.0
2015-Mar-24 05:33N 47°38' W 122°23'0 0.0
2015-Mar-24 04:34N 47°38' W 122°23'0 0.0
2015-Mar-24 04:31N 47°38' W 122°23'0 0.0
2015-Mar-24 03:33N 47°38' W 122°23'0 0.0
2015-Mar-24 03:31N 47°38' W 122°23'0 0.0
2015-Mar-24 02:33N 47°38' W 122°23'0 0.0
2015-Mar-24 02:31N 47°38' W 122°23'0 0.0
2015-Mar-24 01:33N 47°38' W 122°23'0 0.0
2015-Mar-24 01:31N 47°38' W 122°23'0 0.0
2015-Mar-24 00:33N 47°38' W 122°23'0 0.0
2015-Mar-24 00:31N 47°38' W 122°23'0 0.0
2015-Mar-23 23:34N 47°38' W 122°23'0 0.1
2015-Mar-23 23:31N 47°38' W 122°23'0 0.0
2015-Mar-23 22:34N 47°38' W 122°23'0 0.2
2015-Mar-23 22:30N 47°38' W 122°23'0 0.0
2015-Mar-23 21:34N 47°38' W 122°23'0 0.0
2015-Mar-23 21:30N 47°38' W 122°23'0 0.0
2015-Mar-23 20:34N 47°38' W 122°23'0 0.0
2015-Mar-23 20:30N 47°38' W 122°23'0 0.0
2015-Mar-23 19:34N 47°38' W 122°23'0 0.0
2015-Mar-23 19:30N 47°38' W 122°23'0 0.0
2015-Mar-23 18:34N 47°38' W 122°23'0 0.0
2015-Mar-23 18:30N 47°38' W 122°23'0 0.0
2015-Mar-23 17:34N 47°38' W 122°23'0 0.0
2015-Mar-23 17:30N 47°38' W 122°23'0 0.0
2015-Mar-23 16:34N 47°38' W 122°23'0 0.1
2015-Mar-23 16:30N 47°38' W 122°23'0 0.0
2015-Mar-23 15:34N 47°38' W 122°23'0 0.0
2015-Mar-23 15:30N 47°38' W 122°23'0 0.0
2015-Mar-23 14:34N 47°38' W 122°23'0 0.0
2015-Mar-23 14:24N 47°38' W 122°23'0 0.0
2015-Mar-23 13:34N 47°38' W 122°23'0 0.0
2015-Mar-23 13:29N 47°38' W 122°23'0 0.0
2015-Mar-23 12:34N 47°38' W 122°23'0 0.0
2015-Mar-23 12:29N 47°38' W 122°23'0 0.0
2015-Mar-23 11:34N 47°38' W 122°23'0 0.0
2015-Mar-23 11:29N 47°38' W 122°23'0 0.0
2015-Mar-23 10:34N 47°38' W 122°23'0 0.1
2015-Mar-23 10:29N 47°38' W 122°23'0 0.0
2015-Mar-23 09:34N 47°38' W 122°23'0 0.1
2015-Mar-23 09:29N 47°38' W 122°23'0 0.0
2015-Mar-23 08:34N 47°38' W 122°23'0 0.0
2015-Mar-23 08:18N 47°38' W 122°23'0 0.0
2015-Mar-23 07:34N 47°38' W 122°23'0 0.0
2015-Mar-23 07:32N 47°38' W 122°23'0 0.0
2015-Mar-23 06:34N 47°38' W 122°23'0 0.0
2015-Mar-23 06:32N 47°38' W 122°23'0 0.0
2015-Mar-23 06:02N 47°38' W 122°23'0 0.0
2015-Mar-23 05:34N 47°38' W 122°23'0 0.0
2015-Mar-23 04:34N 47°38' W 122°23'0 0.0
2015-Mar-23 04:32N 47°38' W 122°23'0 0.0
2015-Mar-23 03:33N 47°38' W 122°23'0 0.0
2015-Mar-23 03:32N 47°38' W 122°23'0 0.0
2015-Mar-23 02:34N 47°38' W 122°23'0 0.0
2015-Mar-23 02:32N 47°38' W 122°23'0 0.0
2015-Mar-23 01:34N 47°38' W 122°23'0 0.0
2015-Mar-23 01:32N 47°38' W 122°23'0 0.3
2015-Mar-23 00:34N 47°38' W 122°23'0 3.8
2015-Mar-23 00:31N 47°38' W 122°23'7 7.0
2015-Mar-22 23:34N 47°34' W 122°32'0 7.0
2015-Mar-22 23:31N 47°34' W 122°32'0 0.1
2015-Mar-22 22:34N 47°34' W 122°33'0 0.0
2015-Mar-22 22:31N 47°34' W 122°33'0 0.0
2015-Mar-22 21:33N 47°34' W 122°33'0 0.0
2015-Mar-22 21:25N 47°34' W 122°33'0 0.0
2015-Mar-22 20:34N 47°34' W 122°33'0 0.0
2015-Mar-22 20:31N 47°34' W 122°33'0 0.0
2015-Mar-22 19:34N 47°34' W 122°33'0 0.0
2015-Mar-22 19:31N 47°34' W 122°33'0 0.0
2015-Mar-22 18:33N 47°34' W 122°33'0 0.0
2015-Mar-22 18:30N 47°34' W 122°33'0 0.1
2015-Mar-22 17:34N 47°34' W 122°32'0 0.0
2015-Mar-22 17:31N 47°34' W 122°32'0 0.0
2015-Mar-22 16:34N 47°34' W 122°32'0 0.0
2015-Mar-22 16:30N 47°34' W 122°32'0 0.0
2015-Mar-22 15:34N 47°34' W 122°32'0 0.0
2015-Mar-22 15:30N 47°34' W 122°32'2 2.2
2015-Mar-22 14:34N 47°35' W 122°29'0 6.8
2015-Mar-22 14:30N 47°35' W 122°29'5 5.4
2015-Mar-22 13:34N 47°38' W 122°23'0 0.0
2015-Mar-22 13:30N 47°38' W 122°23'0 0.0
2015-Mar-22 12:34N 47°38' W 122°23'0 0.0
2015-Mar-22 12:30N 47°38' W 122°23'0 0.0
2015-Mar-22 11:34N 47°38' W 122°23'0 0.0
2015-Mar-22 11:30N 47°38' W 122°23'0 0.0
2015-Mar-22 10:34N 47°38' W 122°23'0 0.0
2015-Mar-22 10:18N 47°38' W 122°23'0 0.0
2015-Mar-22 09:34N 47°38' W 122°23'0 0.0
2015-Mar-22 09:29N 47°38' W 122°23'0 0.0
2015-Mar-22 08:34N 47°38' W 122°23'0 0.0
2015-Mar-22 08:29N 47°38' W 122°23'0 0.0
2015-Mar-22 07:34N 47°38' W 122°23'0 0.0
2015-Mar-22 07:29N 47°38' W 122°23'0 0.0
2015-Mar-22 06:34N 47°38' W 122°23'0 0.0
2015-Mar-22 06:29N 47°38' W 122°23'0 0.0
2015-Mar-22 06:04N 47°38' W 122°23'0 0.0
2015-Mar-22 05:33N 47°38' W 122°23'0 0.0
2015-Mar-22 04:33N 47°38' W 122°23'0 0.0
2015-Mar-22 04:29N 47°38' W 122°23'0 0.0
2015-Mar-22 03:33N 47°38' W 122°23'0 0.0
2015-Mar-22 03:29N 47°38' W 122°23'0 0.0
2015-Mar-22 02:34N 47°38' W 122°23'0 0.0
2015-Mar-22 02:34N 47°38' W 122°23'0 0.0
2015-Mar-22 01:33N 47°38' W 122°23'0 0.0
2015-Mar-22 01:33N 47°38' W 122°23'0 0.0
2015-Mar-22 00:33N 47°38' W 122°23'0 0.0
2015-Mar-22 00:32N 47°38' W 122°23'0 0.0
2015-Mar-21 23:33N 47°38' W 122°23'0 0.0
2015-Mar-21 23:32N 47°38' W 122°23'0 0.0
2015-Mar-21 22:33N 47°38' W 122°23'0 0.0
2015-Mar-21 22:32N 47°38' W 122°23'0 0.0
2015-Mar-21 21:33N 47°38' W 122°23'0 0.0
2015-Mar-21 21:32N 47°38' W 122°23'0 0.0
2015-Mar-21 20:33N 47°38' W 122°23'0 0.0
2015-Mar-21 20:32N 47°38' W 122°23'0 0.0
2015-Mar-21 19:33N 47°38' W 122°23'0 0.0
2015-Mar-21 19:32N 47°38' W 122°23'0 0.0
2015-Mar-21 18:33N 47°38' W 122°23'0 0.0
2015-Mar-21 18:32N 47°38' W 122°23'0 0.0
2015-Mar-21 17:33N 47°38' W 122°23'0 0.0
2015-Mar-21 17:26N 47°38' W 122°23'0 0.0
2015-Mar-21 16:33N 47°38' W 122°23'0 0.1
2015-Mar-21 16:31N 47°38' W 122°23'0 0.0
2015-Mar-21 15:33N 47°38' W 122°23'0 0.1
2015-Mar-21 15:31N 47°38' W 122°23'0 0.0
2015-Mar-21 14:34N 47°38' W 122°23'0 0.0
2015-Mar-21 14:30N 47°38' W 122°23'0 0.0
2015-Mar-21 13:33N 47°38' W 122°23'0 0.0
2015-Mar-21 13:30N 47°38' W 122°23'0 0.0
2015-Mar-21 12:33N 47°38' W 122°23'0 0.0
2015-Mar-21 12:30N 47°38' W 122°23'0 0.0
2015-Mar-21 11:33N 47°38' W 122°23'0 0.0
2015-Mar-21 11:30N 47°38' W 122°23'0 0.0
2015-Mar-21 10:33N 47°38' W 122°23'0 0.0
2015-Mar-21 10:30N 47°38' W 122°23'0 0.0
2015-Mar-21 09:33N 47°38' W 122°23'0 0.0
2015-Mar-21 09:03N 47°38' W 122°23'0 0.0
2015-Mar-21 08:33N 47°38' W 122°23'0 0.0
2015-Mar-21 08:33N 47°38' W 122°23'0 0.0
2015-Mar-21 07:33N 47°38' W 122°23'0 0.0
2015-Mar-21 07:33N 47°38' W 122°23'0 0.0
2015-Mar-21 06:33N 47°38' W 122°23'0 0.0
2015-Mar-21 06:32N 47°38' W 122°23'0 0.0
2015-Mar-21 06:13N 47°38' W 122°23'0 0.0
2015-Mar-21 05:33N 47°38' W 122°23'0 0.0
2015-Mar-21 04:33N 47°38' W 122°23'0 0.0
2015-Mar-21 04:32N 47°38' W 122°23'0 0.0
2015-Mar-21 03:33N 47°38' W 122°23'0 0.0
2015-Mar-21 03:32N 47°38' W 122°23'0 0.0
2015-Mar-21 02:33N 47°38' W 122°23'0 0.0
2015-Mar-21 02:32N 47°38' W 122°23'0 0.0
2015-Mar-21 01:33N 47°38' W 122°23'0 0.0
2015-Mar-21 01:31N 47°38' W 122°23'0 0.0
2015-Mar-21 00:33N 47°38' W 122°23'0 0.0
2015-Mar-21 00:31N 47°38' W 122°23'0 0.0
2015-Mar-20 23:33N 47°38' W 122°23'0 0.0
2015-Mar-20 23:31N 47°38' W 122°23'0 0.0
2015-Mar-20 22:33N 47°38' W 122°23'0 0.1
2015-Mar-20 22:31N 47°38' W 122°23'5 5.7
2015-Mar-20 21:33N 47°42' W 122°28'0 8.2
2015-Mar-20 21:30N 47°43' W 122°28'8 8.3
2015-Mar-20 20:33N 47°51' W 122°29'0 7.8
2015-Mar-20 20:30N 47°51' W 122°29'  

Dump ship's entire track history